sensor_id;sensor_type;location;lat;lon;timestamp;pressure;altitude;pressure_sealevel;temperature;humidity
3697;BME280;60662;48.810;8.872;2023-05-20T06:26:21;96615.69;;;13.15;79.82
3697;BME280;60662;48.810;8.872;2023-05-20T06:28:31;96611.31;;;13.47;80.03
3697;BME280;60662;48.810;8.872;2023-05-20T06:29:32;96606.31;;;13.59;80.02
3697;BME280;60662;48.810;8.872;2023-05-20T06:31:45;96600.28;;;13.57;78.98
3697;BME280;60662;48.810;8.872;2023-05-20T06:33:59;96604.16;;;13.65;79.00
3697;BME280;60662;48.810;8.872;2023-05-20T06:36:16;96568.03;;;13.54;78.89
3697;BME280;60662;48.810;8.872;2023-05-20T06:37:17;96605.91;;;13.81;78.84
3697;BME280;60662;48.810;8.872;2023-05-20T06:38:19;96600.75;;;13.94;78.39
3697;BME280;60662;48.810;8.872;2023-05-20T06:39:21;96606.06;;;14.08;77.26
3697;BME280;60662;48.810;8.872;2023-05-20T06:40:22;96597.72;;;14.16;77.28
3697;BME280;60662;48.810;8.872;2023-05-20T06:41:24;96601.38;;;14.28;77.49
3697;BME280;60662;48.810;8.872;2023-05-20T06:43:47;96604.88;;;13.98;78.37
3697;BME280;60662;48.810;8.872;2023-05-20T06:44:52;96599.75;;;13.96;78.52
3697;BME280;60662;48.810;8.872;2023-05-20T06:45:54;96603.25;;;14.11;77.92
3697;BME280;60662;48.810;8.872;2023-05-20T06:46:55;96605.31;;;14.20;77.70
3697;BME280;60662;48.810;8.872;2023-05-20T06:47:57;96600.81;;;14.23;77.47
3697;BME280;60662;48.810;8.872;2023-05-20T06:48:59;96606.00;;;14.39;77.23
3697;BME280;60662;48.810;8.872;2023-05-20T06:50:00;96600.09;;;14.35;77.02
3697;BME280;60662;48.810;8.872;2023-05-20T06:51:02;96600.09;;;14.35;77.34
3697;BME280;60662;48.810;8.872;2023-05-20T06:53:06;96599.81;;;14.54;76.20
3697;BME280;60662;48.810;8.872;2023-05-20T06:54:08;96586.69;;;14.68;76.11
3697;BME280;60662;48.810;8.872;2023-05-20T06:55:09;96592.97;;;14.66;75.84
3697;BME280;60662;48.810;8.872;2023-05-20T06:56:11;96597.16;;;14.83;75.68
3697;BME280;60662;48.810;8.872;2023-05-20T06:57:13;96584.19;;;14.94;75.48
3697;BME280;60662;48.810;8.872;2023-05-20T06:58:14;96590.69;;;15.30;74.45
3697;BME280;60662;48.810;8.872;2023-05-20T06:59:16;96591.63;;;15.02;73.91
3697;BME280;60662;48.810;8.872;2023-05-20T07:00:18;96600.34;;;15.02;74.95
3697;BME280;60662;48.810;8.872;2023-05-20T07:01:19;96593.88;;;14.94;75.24
3697;BME280;60662;48.810;8.872;2023-05-20T07:02:21;96591.75;;;15.13;74.64
3697;BME280;60662;48.810;8.872;2023-05-20T07:03:23;96592.25;;;15.06;74.19
3697;BME280;60662;48.810;8.872;2023-05-20T07:04:24;96598.31;;;15.21;74.29
3697;BME280;60662;48.810;8.872;2023-05-20T07:05:26;96584.13;;;15.23;74.57
3697;BME280;60662;48.810;8.872;2023-05-20T07:06:29;96589.28;;;15.25;73.85
3697;BME280;60662;48.810;8.872;2023-05-20T07:07:31;96593.81;;;15.23;73.32
3697;BME280;60662;48.810;8.872;2023-05-20T07:08:33;96589.44;;;15.09;73.75
3697;BME280;60662;48.810;8.872;2023-05-20T07:09:34;96585.56;;;15.14;73.66
3697;BME280;60662;48.810;8.872;2023-05-20T07:10:36;96589.94;;;15.01;74.30
3697;BME280;60662;48.810;8.872;2023-05-20T07:11:37;96574.72;;;15.06;74.45
3697;BME280;60662;48.810;8.872;2023-05-20T07:12:39;96591.63;;;15.29;74.25
3697;BME280;60662;48.810;8.872;2023-05-20T07:13:40;96572.66;;;15.24;74.47
3697;BME280;60662;48.810;8.872;2023-05-20T07:14:42;96583.53;;;15.32;74.24
3697;BME280;60662;48.810;8.872;2023-05-20T07:15:46;96580.81;;;15.34;74.18
3697;BME280;60662;48.810;8.872;2023-05-20T07:16:48;96576.13;;;15.25;74.44
3697;BME280;60662;48.810;8.872;2023-05-20T07:17:49;96581.50;;;15.23;74.54
3697;BME280;60662;48.810;8.872;2023-05-20T07:18:51;96570.69;;;15.28;74.01
3697;BME280;60662;48.810;8.872;2023-05-20T07:19:53;96576.63;;;15.17;74.82
3697;BME280;60662;48.810;8.872;2023-05-20T07:20:54;96580.84;;;15.19;74.78
3697;BME280;60662;48.810;8.872;2023-05-20T07:21:57;96575.16;;;15.13;74.25
3697;BME280;60662;48.810;8.872;2023-05-20T07:22:58;96579.91;;;15.21;74.04
3697;BME280;60662;48.810;8.872;2023-05-20T07:24:01;96569.34;;;15.08;73.72
3697;BME280;60662;48.810;8.872;2023-05-20T07:25:02;96571.38;;;15.44;73.06
3697;BME280;60662;48.810;8.872;2023-05-20T07:26:04;96571.41;;;15.57;72.99
3697;BME280;60662;48.810;8.872;2023-05-20T07:27:06;96564.38;;;15.30;73.58
3697;BME280;60662;48.810;8.872;2023-05-20T07:28:08;96564.03;;;15.22;74.67
3697;BME280;60662;48.810;8.872;2023-05-20T07:29:10;96564.09;;;15.08;75.09
3697;BME280;60662;48.810;8.872;2023-05-20T07:30:11;96567.56;;;15.35;74.68
3697;BME280;60662;48.810;8.872;2023-05-20T07:31:13;96563.44;;;15.31;74.32
3697;BME280;60662;48.810;8.872;2023-05-20T07:32:15;96567.88;;;15.44;73.91
3697;BME280;60662;48.810;8.872;2023-05-20T07:33:17;96563.22;;;15.34;73.08
3697;BME280;60662;48.810;8.872;2023-05-20T07:34:19;96562.56;;;15.45;73.26
3697;BME280;60662;48.810;8.872;2023-05-20T07:35:20;96570.16;;;15.23;74.09
3697;BME280;60662;48.810;8.872;2023-05-20T07:36:22;96563.72;;;15.54;73.95
3697;BME280;60662;48.810;8.872;2023-05-20T07:37:23;96561.34;;;15.77;73.02
3697;BME280;60662;48.810;8.872;2023-05-20T07:38:25;96563.22;;;15.34;74.43
3697;BME280;60662;48.810;8.872;2023-05-20T07:39:27;96569.84;;;15.67;74.02
3697;BME280;60662;48.810;8.872;2023-05-20T07:40:29;96561.91;;;15.82;73.19
3697;BME280;60662;48.810;8.872;2023-05-20T07:41:31;96566.47;;;15.93;72.90
3697;BME280;60662;48.810;8.872;2023-05-20T07:42:32;96565.34;;;15.70;73.42
3697;BME280;60662;48.810;8.872;2023-05-20T07:43:34;96568.28;;;15.65;73.15
3697;BME280;60662;48.810;8.872;2023-05-20T07:44:36;96559.97;;;15.71;73.33
3697;BME280;60662;48.810;8.872;2023-05-20T07:45:37;96561.56;;;15.74;73.55
3697;BME280;60662;48.810;8.872;2023-05-20T07:46:39;96559.34;;;15.80;72.77
3697;BME280;60662;48.810;8.872;2023-05-20T07:47:42;96564.28;;;15.72;72.11
3697;BME280;60662;48.810;8.872;2023-05-20T07:48:43;96569.44;;;15.61;72.75
3697;BME280;60662;48.810;8.872;2023-05-20T07:49:45;96567.81;;;15.86;72.74
3697;BME280;60662;48.810;8.872;2023-05-20T07:50:47;96559.50;;;15.92;72.63
3697;BME280;60662;48.810;8.872;2023-05-20T07:51:48;96559.09;;;15.98;71.90
3697;BME280;60662;48.810;8.872;2023-05-20T07:52:50;96556.69;;;15.95;71.43
3697;BME280;60662;48.810;8.872;2023-05-20T07:53:57;96559.25;;;15.82;71.12
3697;BME280;60662;48.810;8.872;2023-05-20T07:54:58;96542.88;;;16.04;70.92
3697;BME280;60662;48.810;8.872;2023-05-20T07:56:00;96550.88;;;16.03;71.02
3697;BME280;60662;48.810;8.872;2023-05-20T07:57:01;96550.25;;;16.25;71.10
3697;BME280;60662;48.810;8.872;2023-05-20T07:58:03;96548.25;;;16.28;71.21
3697;BME280;60662;48.810;8.872;2023-05-20T07:59:04;96560.59;;;16.28;70.94
3697;BME280;60662;48.810;8.872;2023-05-20T08:00:06;96554.56;;;16.00;71.91
3697;BME280;60662;48.810;8.872;2023-05-20T08:01:16;96548.25;;;16.15;71.48
3697;BME280;60662;48.810;8.872;2023-05-20T08:02:17;96555.72;;;16.09;71.36
3697;BME280;60662;48.810;8.872;2023-05-20T08:03:19;96551.72;;;16.03;71.62
3697;BME280;60662;48.810;8.872;2023-05-20T08:04:22;96548.44;;;15.99;71.71
3697;BME280;60662;48.810;8.872;2023-05-20T08:05:24;96551.94;;;16.00;71.25
3697;BME280;60662;48.810;8.872;2023-05-20T08:06:25;96541.19;;;16.16;71.14
3697;BME280;60662;48.810;8.872;2023-05-20T08:07:30;96540.03;;;16.33;70.45
3697;BME280;60662;48.810;8.872;2023-05-20T08:08:32;96544.56;;;16.81;69.90
3697;BME280;60662;48.810;8.872;2023-05-20T08:09:33;96548.06;;;17.19;69.68
3697;BME280;60662;48.810;8.872;2023-05-20T08:10:35;96544.47;;;17.44;69.43
3697;BME280;60662;48.810;8.872;2023-05-20T08:11:37;96544.78;;;17.39;69.47
3697;BME280;60662;48.810;8.872;2023-05-20T08:12:38;96543.16;;;17.25;68.61
3697;BME280;60662;48.810;8.872;2023-05-20T08:13:40;96550.69;;;17.19;69.05
3697;BME280;60662;48.810;8.872;2023-05-20T08:14:41;96544.09;;;17.13;69.10
3697;BME280;60662;48.810;8.872;2023-05-20T08:15:44;96549.81;;;17.07;69.01
3697;BME280;60662;48.810;8.872;2023-05-20T08:16:45;96539.91;;;16.85;69.12
3697;BME280;60662;48.810;8.872;2023-05-20T08:17:47;96541.06;;;16.43;70.01
3697;BME280;60662;48.810;8.872;2023-05-20T08:18:48;96536.25;;;16.74;69.41
3697;BME280;60662;48.810;8.872;2023-05-20T08:19:50;96542.50;;;17.10;68.80
3697;BME280;60662;48.810;8.872;2023-05-20T08:20:51;96537.47;;;17.67;68.11
3697;BME280;60662;48.810;8.872;2023-05-20T08:21:53;96536.88;;;17.39;65.35
3697;BME280;60662;48.810;8.872;2023-05-20T08:22:54;96540.31;;;17.53;67.75
3697;BME280;60662;48.810;8.872;2023-05-20T08:23:56;96536.50;;;18.04;66.25
3697;BME280;60662;48.810;8.872;2023-05-20T08:24:57;96538.59;;;18.46;66.11
3697;BME280;60662;48.810;8.872;2023-05-20T08:25:59;96536.88;;;18.67;65.59
3697;BME280;60662;48.810;8.872;2023-05-20T08:27:04;96534.25;;;18.44;65.87
3697;BME280;60662;48.810;8.872;2023-05-20T08:28:05;96543.13;;;18.09;66.52
3697;BME280;60662;48.810;8.872;2023-05-20T08:29:07;96538.72;;;18.55;66.04
3697;BME280;60662;48.810;8.872;2023-05-20T08:30:09;96533.16;;;18.24;66.34
3697;BME280;60662;48.810;8.872;2023-05-20T08:31:11;96531.72;;;18.32;64.71
3697;BME280;60662;48.810;8.872;2023-05-20T08:32:12;96538.09;;;18.40;65.91
3697;BME280;60662;48.810;8.872;2023-05-20T08:33:14;96534.44;;;17.96;66.65
3697;BME280;60662;48.810;8.872;2023-05-20T08:34:15;96545.06;;;18.30;66.58
3697;BME280;60662;48.810;8.872;2023-05-20T08:35:17;96550.13;;;18.67;65.78
3697;BME280;60662;48.810;8.872;2023-05-20T08:36:18;96550.38;;;18.41;65.46
3697;BME280;60662;48.810;8.872;2023-05-20T08:37:20;96551.06;;;18.21;66.37
3697;BME280;60662;48.810;8.872;2023-05-20T08:38:21;96555.66;;;18.41;66.04
3697;BME280;60662;48.810;8.872;2023-05-20T08:39:24;96551.31;;;18.63;65.74
3697;BME280;60662;48.810;8.872;2023-05-20T08:40:26;96552.28;;;18.73;65.12
3697;BME280;60662;48.810;8.872;2023-05-20T08:41:27;96551.84;;;17.63;65.05
3697;BME280;60662;48.810;8.872;2023-05-20T08:42:29;96549.47;;;17.95;64.30
3697;BME280;60662;48.810;8.872;2023-05-20T08:43:31;96550.56;;;17.80;65.32
3697;BME280;60662;48.810;8.872;2023-05-20T08:44:33;96549.56;;;17.94;65.16
3697;BME280;60662;48.810;8.872;2023-05-20T08:45:37;96559.00;;;18.09;64.91
3697;BME280;60662;48.810;8.872;2023-05-20T08:46:39;96554.03;;;18.05;64.79
3697;BME280;60662;48.810;8.872;2023-05-20T08:47:41;96557.28;;;17.97;65.06
3697;BME280;60662;48.810;8.872;2023-05-20T08:48:44;96557.25;;;17.61;64.60
3697;BME280;60662;48.810;8.872;2023-05-20T08:49:47;96561.66;;;17.50;65.22
3697;BME280;60662;48.810;8.872;2023-05-20T08:50:50;96554.44;;;17.52;66.13
3697;BME280;60662;48.810;8.872;2023-05-20T08:51:52;96550.63;;;17.32;65.97
3697;BME280;60662;48.810;8.872;2023-05-20T08:52:53;96561.53;;;17.51;65.22
3697;BME280;60662;48.810;8.872;2023-05-20T08:53:55;96560.88;;;17.12;65.43
3697;BME280;60662;48.810;8.872;2023-05-20T08:54:57;96569.41;;;17.16;66.38
3697;BME280;60662;48.810;8.872;2023-05-20T08:56:00;96567.47;;;16.80;65.23
3697;BME280;60662;48.810;8.872;2023-05-20T08:57:04;96556.00;;;16.43;66.76
3697;BME280;60662;48.810;8.872;2023-05-20T08:58:05;96564.00;;;16.54;66.50
3697;BME280;60662;48.810;8.872;2023-05-20T08:59:07;96555.59;;;16.49;67.40
3697;BME280;60662;48.810;8.872;2023-05-20T09:00:10;96556.13;;;16.41;67.23
3697;BME280;60662;48.810;8.872;2023-05-20T09:01:13;96564.88;;;16.55;67.76
3697;BME280;60662;48.810;8.872;2023-05-20T09:02:15;96554.84;;;16.60;67.56
3697;BME280;60662;48.810;8.872;2023-05-20T09:03:18;96558.28;;;16.86;67.28
3697;BME280;60662;48.810;8.872;2023-05-20T09:04:20;96559.63;;;17.05;66.83
3697;BME280;60662;48.810;8.872;2023-05-20T09:05:22;96549.44;;;17.24;65.26
3697;BME280;60662;48.810;8.872;2023-05-20T09:06:23;96559.50;;;17.30;65.03
3697;BME280;60662;48.810;8.872;2023-05-20T09:07:26;96563.25;;;17.15;65.61
3697;BME280;60662;48.810;8.872;2023-05-20T09:08:29;96565.75;;;16.79;66.49
3697;BME280;60662;48.810;8.872;2023-05-20T09:09:33;96557.59;;;16.58;67.38
3697;BME280;60662;48.810;8.872;2023-05-20T09:10:36;96562.50;;;16.89;66.97
3697;BME280;60662;48.810;8.872;2023-05-20T09:11:39;96554.19;;;17.19;66.52
3697;BME280;60662;48.810;8.872;2023-05-20T09:12:41;96558.06;;;16.89;66.10
3697;BME280;60662;48.810;8.872;2023-05-20T09:13:43;96561.03;;;17.46;65.52
3697;BME280;60662;48.810;8.872;2023-05-20T09:14:44;96554.44;;;17.87;63.80
3697;BME280;60662;48.810;8.872;2023-05-20T09:15:46;96550.44;;;18.06;64.26
3697;BME280;60662;48.810;8.872;2023-05-20T09:16:48;96549.50;;;18.41;63.53
3697;BME280;60662;48.810;8.872;2023-05-20T09:17:49;96555.66;;;18.53;61.73
3697;BME280;60662;48.810;8.872;2023-05-20T09:18:54;96556.84;;;18.71;62.19
3697;BME280;60662;48.810;8.872;2023-05-20T09:19:56;96552.25;;;19.19;61.20
3697;BME280;60662;48.810;8.872;2023-05-20T09:21:03;96552.25;;;19.51;62.33
3697;BME280;60662;48.810;8.872;2023-05-20T09:22:06;96541.22;;;20.00;61.33
3697;BME280;60662;48.810;8.872;2023-05-20T09:23:08;96542.69;;;19.93;61.76
3697;BME280;60662;48.810;8.872;2023-05-20T09:24:10;96532.53;;;19.98;61.47
3697;BME280;60662;48.810;8.872;2023-05-20T09:25:11;96541.16;;;19.90;60.90
3697;BME280;60662;48.810;8.872;2023-05-20T09:26:16;96532.31;;;19.68;61.59
3697;BME280;60662;48.810;8.872;2023-05-20T09:27:19;96536.16;;;19.43;60.90
3697;BME280;60662;48.810;8.872;2023-05-20T09:28:22;96548.38;;;19.55;60.72
3697;BME280;60662;48.810;8.872;2023-05-20T09:29:25;96538.16;;;19.51;61.53
3697;BME280;60662;48.810;8.872;2023-05-20T09:30:27;96541.78;;;19.82;62.01
3697;BME280;60662;48.810;8.872;2023-05-20T09:31:32;96535.66;;;19.70;60.99
3697;BME280;60662;48.810;8.872;2023-05-20T09:32:34;96535.66;;;19.49;61.89
3697;BME280;60662;48.810;8.872;2023-05-20T09:33:36;96540.34;;;19.46;63.21
3697;BME280;60662;48.810;8.872;2023-05-20T09:34:37;96537.38;;;19.39;63.33
3697;BME280;60662;48.810;8.872;2023-05-20T09:35:39;96544.16;;;19.20;63.39
3697;BME280;60662;48.810;8.872;2023-05-20T09:36:42;96523.84;;;19.09;63.48
3697;BME280;60662;48.810;8.872;2023-05-20T09:37:45;96526.47;;;19.21;62.65
3697;BME280;60662;48.810;8.872;2023-05-20T09:38:51;96533.38;;;19.45;62.93
3697;BME280;60662;48.810;8.872;2023-05-20T09:39:55;96533.31;;;19.56;62.16
3697;BME280;60662;48.810;8.872;2023-05-20T09:41:05;96528.63;;;19.27;62.78
3697;BME280;60662;48.810;8.872;2023-05-20T09:42:16;96532.75;;;19.20;62.40
3697;BME280;60662;48.810;8.872;2023-05-20T09:43:18;96522.03;;;19.21;62.52
3697;BME280;60662;48.810;8.872;2023-05-20T09:44:20;96524.84;;;19.41;62.15
3697;BME280;60662;48.810;8.872;2023-05-20T09:45:23;96516.78;;;19.64;61.68
3697;BME280;60662;48.810;8.872;2023-05-20T09:46:25;96520.91;;;19.56;61.48
3697;BME280;60662;48.810;8.872;2023-05-20T09:47:28;96524.41;;;19.24;63.13
3697;BME280;60662;48.810;8.872;2023-05-20T09:48:31;96527.72;;;19.49;62.71
3697;BME280;60662;48.810;8.872;2023-05-20T09:49:34;96523.00;;;19.53;63.05
3697;BME280;60662;48.810;8.872;2023-05-20T09:50:37;96526.44;;;19.65;61.96
3697;BME280;60662;48.810;8.872;2023-05-20T09:51:40;96530.13;;;19.73;61.91
3697;BME280;60662;48.810;8.872;2023-05-20T09:52:42;96502.38;;;19.56;61.23
3697;BME280;60662;48.810;8.872;2023-05-20T09:53:44;96519.75;;;19.70;61.73
3697;BME280;60662;48.810;8.872;2023-05-20T09:54:46;96519.38;;;19.86;60.86
3697;BME280;60662;48.810;8.872;2023-05-20T09:55:49;96524.31;;;19.80;61.78
3697;BME280;60662;48.810;8.872;2023-05-20T09:56:53;96522.53;;;19.48;61.53
3697;BME280;60662;48.810;8.872;2023-05-20T09:57:55;96526.25;;;19.45;61.99
3697;BME280;60662;48.810;8.872;2023-05-20T09:58:57;96521.53;;;19.81;61.36
3697;BME280;60662;48.810;8.872;2023-05-20T10:00:00;96525.78;;;19.72;61.56
3697;BME280;60662;48.810;8.872;2023-05-20T10:01:02;96528.13;;;19.33;62.19
3697;BME280;60662;48.810;8.872;2023-05-20T10:02:05;96515.34;;;19.38;62.97
3697;BME280;60662;48.810;8.872;2023-05-20T10:03:06;96527.13;;;19.46;61.67
3697;BME280;60662;48.810;8.872;2023-05-20T10:04:10;96520.47;;;19.84;61.12
3697;BME280;60662;48.810;8.872;2023-05-20T10:05:19;96526.22;;;19.56;61.36
3697;BME280;60662;48.810;8.872;2023-05-20T10:06:34;96520.25;;;19.97;59.97
3697;BME280;60662;48.810;8.872;2023-05-20T10:08:57;96518.78;;;20.04;60.27
3697;BME280;60662;48.810;8.872;2023-05-20T10:10:31;96516.44;;;20.11;60.34
3697;BME280;60662;48.810;8.872;2023-05-20T10:11:47;96518.44;;;20.49;59.89
3697;BME280;60662;48.810;8.872;2023-05-20T10:15:51;96508.78;;;20.79;59.38
3697;BME280;60662;48.810;8.872;2023-05-20T10:19:29;96507.59;;;21.52;56.43
3697;BME280;60662;48.810;8.872;2023-05-20T10:20:31;96506.97;;;20.49;57.87
3697;BME280;60662;48.810;8.872;2023-05-20T10:21:33;96509.72;;;20.68;58.44
3697;BME280;60662;48.810;8.872;2023-05-20T10:22:34;96512.44;;;20.88;58.36
3697;BME280;60662;48.810;8.872;2023-05-20T10:23:36;96519.00;;;20.84;59.01
3697;BME280;60662;48.810;8.872;2023-05-20T10:24:39;96509.66;;;20.80;58.23
3697;BME280;60662;48.810;8.872;2023-05-20T10:25:52;96518.91;;;20.64;58.25
3697;BME280;60662;48.810;8.872;2023-05-20T10:26:54;96514.25;;;20.78;57.59
3697;BME280;60662;48.810;8.872;2023-05-20T10:28:07;96506.59;;;20.94;57.11
3697;BME280;60662;48.810;8.872;2023-05-20T10:29:19;96496.94;;;20.93;57.56
3697;BME280;60662;48.810;8.872;2023-05-20T10:30:23;96499.19;;;20.88;57.18
3697;BME280;60662;48.810;8.872;2023-05-20T10:31:24;96497.28;;;21.19;56.92
3697;BME280;60662;48.810;8.872;2023-05-20T10:32:28;96496.16;;;21.71;55.44
3697;BME280;60662;48.810;8.872;2023-05-20T10:33:41;96497.97;;;21.31;56.91
3697;BME280;60662;48.810;8.872;2023-05-20T10:34:48;96498.97;;;21.20;57.46
3697;BME280;60662;48.810;8.872;2023-05-20T10:35:50;96497.78;;;20.53;55.66
3697;BME280;60662;48.810;8.872;2023-05-20T10:38:05;96500.41;;;20.43;57.55
3697;BME280;60662;48.810;8.872;2023-05-20T10:39:13;96492.78;;;20.60;57.81
3697;BME280;60662;48.810;8.872;2023-05-20T10:40:19;96494.91;;;20.66;58.17
3697;BME280;60662;48.810;8.872;2023-05-20T10:41:26;96497.44;;;20.36;59.10
3697;BME280;60662;48.810;8.872;2023-05-20T10:42:28;96492.28;;;20.35;58.75
3697;BME280;60662;48.810;8.872;2023-05-20T10:43:32;96496.66;;;20.46;58.80
3697;BME280;60662;48.810;8.872;2023-05-20T10:44:44;96490.34;;;20.78;57.69
3697;BME280;60662;48.810;8.872;2023-05-20T10:45:50;96490.72;;;20.63;57.04
3697;BME280;60662;48.810;8.872;2023-05-20T10:47:01;96494.63;;;21.19;56.84
3697;BME280;60662;48.810;8.872;2023-05-20T10:48:27;96491.25;;;21.96;56.40
3697;BME280;60662;48.810;8.872;2023-05-20T10:49:33;96486.09;;;21.35;56.16
3697;BME280;60662;48.810;8.872;2023-05-20T10:50:36;96487.38;;;21.71;55.94
3697;BME280;60662;48.810;8.872;2023-05-20T10:51:38;96486.97;;;22.13;54.97
3697;BME280;60662;48.810;8.872;2023-05-20T10:52:40;96489.38;;;20.88;55.34
3697;BME280;60662;48.810;8.872;2023-05-20T10:53:44;96472.81;;;20.96;55.40
3697;BME280;60662;48.810;8.872;2023-05-20T10:54:56;96488.03;;;20.94;55.71
3697;BME280;60662;48.810;8.872;2023-05-20T10:55:58;96483.53;;;21.93;55.29
3697;BME280;60662;48.810;8.872;2023-05-20T10:56:59;96488.00;;;22.12;54.46
3697;BME280;60662;48.810;8.872;2023-05-20T10:58:06;96482.69;;;22.49;54.19
3697;BME280;60662;48.810;8.872;2023-05-20T10:59:08;96481.88;;;22.39;53.96
3697;BME280;60662;48.810;8.872;2023-05-20T11:00:10;96484.84;;;22.26;53.63
3697;BME280;60662;48.810;8.872;2023-05-20T11:01:14;96476.81;;;22.74;52.05
3697;BME280;60662;48.810;8.872;2023-05-20T11:02:18;96471.88;;;22.13;52.03
3697;BME280;60662;48.810;8.872;2023-05-20T11:03:22;96481.47;;;21.77;53.81
3697;BME280;60662;48.810;8.872;2023-05-20T11:04:25;96484.22;;;22.05;53.15
3697;BME280;60662;48.810;8.872;2023-05-20T11:05:29;96484.56;;;21.82;53.66
3697;BME280;60662;48.810;8.872;2023-05-20T11:06:32;96483.16;;;21.78;54.32
3697;BME280;60662;48.810;8.872;2023-05-20T11:07:34;96468.91;;;21.30;54.30
3697;BME280;60662;48.810;8.872;2023-05-20T11:08:35;96479.09;;;21.25;55.12
3697;BME280;60662;48.810;8.872;2023-05-20T11:09:37;96478.13;;;21.26;56.11
3697;BME280;60662;48.810;8.872;2023-05-20T11:10:40;96467.63;;;20.95;57.19
3697;BME280;60662;48.810;8.872;2023-05-20T11:11:42;96480.09;;;21.33;56.49
3697;BME280;60662;48.810;8.872;2023-05-20T11:12:44;96482.59;;;21.74;56.00
3697;BME280;60662;48.810;8.872;2023-05-20T11:13:50;96473.53;;;21.67;55.83
3697;BME280;60662;48.810;8.872;2023-05-20T11:14:52;96476.72;;;21.31;56.68
3697;BME280;60662;48.810;8.872;2023-05-20T11:15:54;96472.38;;;21.30;56.78
3697;BME280;60662;48.810;8.872;2023-05-20T11:16:57;96465.53;;;20.98;55.89
3697;BME280;60662;48.810;8.872;2023-05-20T11:18:03;96464.28;;;21.22;56.18
3697;BME280;60662;48.810;8.872;2023-05-20T11:19:13;96463.44;;;21.71;55.16
3697;BME280;60662;48.810;8.872;2023-05-20T11:20:15;96462.81;;;21.96;54.39
3697;BME280;60662;48.810;8.872;2023-05-20T11:21:17;96456.44;;;21.79;54.88
3697;BME280;60662;48.810;8.872;2023-05-20T11:22:20;96451.94;;;21.99;54.26
3697;BME280;60662;48.810;8.872;2023-05-20T11:23:22;96452.22;;;22.34;53.85
3697;BME280;60662;48.810;8.872;2023-05-20T11:24:25;96457.81;;;22.41;54.41
3697;BME280;60662;48.810;8.872;2023-05-20T11:25:27;96456.69;;;22.33;53.89
3697;BME280;60662;48.810;8.872;2023-05-20T11:26:29;96452.13;;;22.54;53.64
3697;BME280;60662;48.810;8.872;2023-05-20T11:27:32;96453.63;;;22.66;53.62
3697;BME280;60662;48.810;8.872;2023-05-20T11:28:34;96447.81;;;22.80;53.67
3697;BME280;60662;48.810;8.872;2023-05-20T11:29:37;96446.16;;;23.15;53.04
3697;BME280;60662;48.810;8.872;2023-05-20T11:30:44;96452.09;;;23.45;52.57
3697;BME280;60662;48.810;8.872;2023-05-20T11:31:47;96458.59;;;23.87;52.93
3697;BME280;60662;48.810;8.872;2023-05-20T11:32:59;96458.69;;;23.77;51.94
3697;BME280;60662;48.810;8.872;2023-05-20T11:34:01;96457.28;;;23.47;52.49
3697;BME280;60662;48.810;8.872;2023-05-20T11:35:05;96452.84;;;23.56;52.95
3697;BME280;60662;48.810;8.872;2023-05-20T11:36:08;96451.47;;;23.70;52.14
3697;BME280;60662;48.810;8.872;2023-05-20T11:37:27;96454.06;;;23.88;52.03
3697;BME280;60662;48.810;8.872;2023-05-20T11:38:29;96459.63;;;23.68;51.75
3697;BME280;60662;48.810;8.872;2023-05-20T11:39:30;96451.28;;;23.71;51.90
3697;BME280;60662;48.810;8.872;2023-05-20T11:40:33;96459.44;;;22.97;53.19
3697;BME280;60662;48.810;8.872;2023-05-20T11:41:50;96461.47;;;23.31;52.65
3697;BME280;60662;48.810;8.872;2023-05-20T11:42:56;96457.19;;;23.83;51.84
3697;BME280;60662;48.810;8.872;2023-05-20T11:43:58;96448.94;;;23.68;51.10
3697;BME280;60662;48.810;8.872;2023-05-20T11:45:01;96443.88;;;23.57;51.54
3697;BME280;60662;48.810;8.872;2023-05-20T11:46:03;96442.66;;;23.51;51.86
3697;BME280;60662;48.810;8.872;2023-05-20T11:47:05;96437.78;;;23.91;51.88
3697;BME280;60662;48.810;8.872;2023-05-20T11:48:07;96435.97;;;24.18;51.50
3697;BME280;60662;48.810;8.872;2023-05-20T11:49:09;96430.75;;;23.63;51.83
3697;BME280;60662;48.810;8.872;2023-05-20T11:50:16;96436.72;;;23.39;52.23
3697;BME280;60662;48.810;8.872;2023-05-20T11:51:28;96437.47;;;23.50;52.04
3697;BME280;60662;48.810;8.872;2023-05-20T11:52:32;96442.25;;;23.90;51.16
3697;BME280;60662;48.810;8.872;2023-05-20T11:53:34;96443.41;;;23.43;51.20
3697;BME280;60662;48.810;8.872;2023-05-20T11:54:35;96446.72;;;23.19;51.88
3697;BME280;60662;48.810;8.872;2023-05-20T11:55:54;96440.22;;;23.04;52.90
3697;BME280;60662;48.810;8.872;2023-05-20T11:56:57;96446.91;;;23.62;51.99
3697;BME280;60662;48.810;8.872;2023-05-20T11:58:00;96443.25;;;23.45;52.11
3697;BME280;60662;48.810;8.872;2023-05-20T11:59:03;96446.97;;;22.98;52.67
3697;BME280;60662;48.810;8.872;2023-05-20T12:00:05;96436.59;;;23.23;53.02
3697;BME280;60662;48.810;8.872;2023-05-20T12:01:10;96433.91;;;23.41;51.74
3697;BME280;60662;48.810;8.872;2023-05-20T12:02:23;96438.81;;;23.27;51.77
3697;BME280;60662;48.810;8.872;2023-05-20T12:03:24;96435.88;;;23.03;52.72
3697;BME280;60662;48.810;8.872;2023-05-20T12:04:26;96433.13;;;22.48;53.27
3697;BME280;60662;48.810;8.872;2023-05-20T12:05:28;96429.72;;;22.56;53.82
3697;BME280;60662;48.810;8.872;2023-05-20T12:06:29;96425.84;;;22.50;53.61
3697;BME280;60662;48.810;8.872;2023-05-20T12:07:31;96433.03;;;22.30;53.61
3697;BME280;60662;48.810;8.872;2023-05-20T12:08:33;96430.28;;;22.22;54.18
3697;BME280;60662;48.810;8.872;2023-05-20T12:09:34;96432.63;;;22.35;54.29
3697;BME280;60662;48.810;8.872;2023-05-20T12:10:36;96427.16;;;22.37;54.42
3697;BME280;60662;48.810;8.872;2023-05-20T12:11:39;96426.03;;;22.39;54.43
3697;BME280;60662;48.810;8.872;2023-05-20T12:12:43;96425.41;;;22.55;54.36
3697;BME280;60662;48.810;8.872;2023-05-20T12:13:45;96424.19;;;22.67;53.84
3697;BME280;60662;48.810;8.872;2023-05-20T12:14:47;96422.88;;;22.54;53.30
3697;BME280;60662;48.810;8.872;2023-05-20T12:15:48;96433.03;;;22.30;54.62
3697;BME280;60662;48.810;8.872;2023-05-20T12:16:50;96433.53;;;22.16;54.81
3697;BME280;60662;48.810;8.872;2023-05-20T12:17:52;96427.84;;;22.01;55.14
3697;BME280;60662;48.810;8.872;2023-05-20T12:18:54;96431.88;;;22.05;55.70
3697;BME280;60662;48.810;8.872;2023-05-20T12:19:56;96433.72;;;22.05;55.45